Tenes, Algeria
Current Conditions -  °F | °C
As of 8:00 AM on Friday 24 Oct 2014 (Local Time) from DAOI Reporting Station
Clear Clear  
Wind Chill: 61°   Ceiling: Unl
Heat Index: 61°   Visibility: 6mi
Dew Point: 50°   Wind: 9mph
Humidity: 68%   Direction: 80°E
Pressure: 30.06"   Gusts: NA
Location:  36.51°N, 1.31°E
Report Text: DAOI 240700Z 08008KT CAVOK 16/10 Q1018
Loading
Personal Weather Stations






























Interactive Weather Map New forecast layout! Learn more

10-Day Weather Forecast

Advertisements
Track Severe Weather on mobile